Time;durP1;ratioP1;P1;durP2;ratioP2;P2;SDS_P1;SDS_P2;PMS_P1;PMS_P2;Temp;Humidity;BMP_temperature;BMP_pressure;BME280_temperature;BME280_humidity;BME280_pressure;Samples;Min_cycle;Max_cycle;Signal;HPM_P1;HPM_P2
2024/03/04 00:00:16;;;;;;;14.43;9.68;;;24.50;48.60;;;;;;6086592;28;81296;-68
2024/03/04 00:03:16;;;;;;;14.48;9.98;;;24.60;48.70;;;;;;6085938;28;80870;-66
2024/03/04 00:06:17;;;;;;;13.95;9.35;;;24.60;48.80;;;;;;6089751;28;85080;-67
2024/03/04 00:09:17;;;;;;;12.15;8.82;;;24.50;48.70;;;;;;6092794;28;82047;-67
2024/03/04 00:12:19;;;;;;;14.68;9.10;;;24.50;48.80;;;;;;6094465;28;81385;-67
2024/03/04 00:15:19;;;;;;;16.17;9.73;;;24.50;48.90;;;;;;6091802;28;80852;-65
2024/03/04 00:18:20;;;;;;;15.10;10.48;;;24.50;48.80;;;;;;6092118;28;81198;-66
2024/03/04 00:21:20;;;;;;;15.43;9.52;;;24.50;48.80;;;;;;6090393;28;83823;-66
2024/03/04 00:24:22;;;;;;;14.77;9.93;;;24.50;48.70;;;;;;6093754;28;83206;-66
2024/03/04 00:27:22;;;;;;;14.85;9.63;;;24.40;48.80;;;;;;6092801;28;84075;-68
2024/03/04 00:30:24;;;;;;;14.60;9.40;;;24.40;48.80;;;;;;6092174;28;82565;-59
2024/03/04 00:33:24;;;;;;;13.20;8.75;;;24.40;48.80;;;;;;6088374;28;81281;-64
2024/03/04 00:36:26;;;;;;;14.15;8.90;;;24.50;49.20;;;;;;6078066;28;84144;-67
2024/03/04 00:39:27;;;;;;;13.10;9.60;;;24.50;49.30;;;;;;6090084;28;80696;-66
2024/03/04 00:42:27;;;;;;;15.02;9.80;;;24.50;49.10;;;;;;6089355;28;80736;-66
2024/03/04 00:45:28;;;;;;;15.25;10.35;;;24.50;49.20;;;;;;6089581;28;81104;-66
2024/03/04 00:48:29;;;;;;;20.20;10.27;;;24.50;49.30;;;;;;6087602;28;85670;-67
2024/03/04 00:51:29;;;;;;;14.40;10.07;;;24.50;49.10;;;;;;6081147;28;83594;-66
2024/03/04 00:54:30;;;;;;;15.85;10.90;;;24.50;49.80;;;;;;6084981;28;85216;-67
2024/03/04 00:57:30;;;;;;;19.65;11.68;;;24.50;49.10;;;;;;6075752;28;83688;-65
2024/03/04 01:00:32;;;;;;;18.27;10.68;;;24.40;49.00;;;;;;6079444;28;84129;-64
2024/03/04 01:03:33;;;;;;;18.17;11.18;;;24.40;49.00;;;;;;6068804;28;90493;-65
2024/03/04 01:06:33;;;;;;;16.88;10.40;;;24.40;49.00;;;;;;6088010;28;85321;-65
2024/03/04 01:09:34;;;;;;;19.67;11.38;;;24.40;48.90;;;;;;6085909;28;84266;-65
2024/03/04 01:12:35;;;;;;;15.02;10.65;;;24.50;49.60;;;;;;6091425;28;84028;-65
2024/03/04 01:15:35;;;;;;;14.65;10.48;;;24.50;49.10;;;;;;6083895;28;84157;-65
2024/03/04 01:18:36;;;;;;;15.32;10.40;;;24.50;48.90;;;;;;6089051;28;84267;-65
2024/03/04 01:21:38;;;;;;;19.83;10.50;;;24.50;49.00;;;;;;6099731;28;83143;-66
2024/03/04 01:24:38;;;;;;;17.77;10.98;;;24.50;49.10;;;;;;6100753;28;83501;-65
2024/03/04 01:27:39;;;;;;;16.20;10.55;;;24.50;49.00;;;;;;6095318;28;84390;-65
2024/03/04 01:30:39;;;;;;;20.85;11.18;;;24.50;48.80;;;;;;6100433;28;85135;-66
2024/03/04 01:33:41;;;;;;;16.00;10.10;;;24.50;48.70;;;;;;6088059;28;83629;-66
2024/03/04 01:36:42;;;;;;;18.17;11.98;;;24.40;48.90;;;;;;6098954;28;83089;-65
2024/03/04 01:39:42;;;;;;;17.25;10.95;;;24.40;48.80;;;;;;6095755;28;83156;-66
2024/03/04 01:42:44;;;;;;;16.58;10.27;;;24.40;48.90;;;;;;6094184;28;86367;-65
2024/03/04 01:45:44;;;;;;;13.48;9.63;;;24.40;48.80;;;;;;6101208;28;83066;-65
2024/03/04 01:48:45;;;;;;;16.17;10.80;;;24.40;48.80;;;;;;6104116;28;82971;-66
2024/03/04 01:51:46;;;;;;;17.23;11.25;;;24.40;48.70;;;;;;6101497;28;83361;-65
2024/03/04 01:54:47;;;;;;;17.60;11.15;;;24.40;48.70;;;;;;6100973;28;86265;-66
2024/03/04 01:57:47;;;;;;;15.25;10.73;;;24.40;48.60;;;;;;6101346;28;82766;-63
2024/03/04 02:00:48;;;;;;;16.60;11.45;;;24.40;48.60;;;;;;6082091;28;85451;-64
2024/03/04 02:03:49;;;;;;;16.30;11.75;;;24.40;48.80;;;;;;6101225;28;83207;-65
2024/03/04 02:06:50;;;;;;;16.27;11.27;;;24.40;48.80;;;;;;6080710;28;83670;-66
2024/03/04 02:09:51;;;;;;;16.42;9.73;;;24.30;48.80;;;;;;6090254;28;83055;-64
2024/03/04 02:12:52;;;;;;;19.38;11.07;;;24.30;48.70;;;;;;6102528;28;83051;-63
2024/03/04 02:15:52;;;;;;;17.35;10.73;;;24.30;48.70;;;;;;6100258;28;83481;-62
2024/03/04 02:18:53;;;;;;;16.77;11.23;;;24.30;48.70;;;;;;6100138;28;83078;-62
2024/03/04 02:21:53;;;;;;;19.48;11.77;;;24.30;48.60;;;;;;6100037;28;84964;-62
2024/03/04 02:24:54;;;;;;;19.98;11.43;;;24.30;48.50;;;;;;6098219;28;85446;-63
2024/03/04 02:27:55;;;;;;;16.50;10.48;;;24.30;48.50;;;;;;6098323;28;83794;-64
2024/03/04 02:30:56;;;;;;;17.17;11.50;;;24.30;48.50;;;;;;6101137;28;85231;-65
2024/03/04 02:33:56;;;;;;;16.98;11.27;;;24.30;48.40;;;;;;6099597;28;86739;-65
2024/03/04 02:36:57;;;;;;;19.55;11.40;;;24.30;48.40;;;;;;6099182;28;84102;-63
2024/03/04 02:39:58;;;;;;;18.13;12.00;;;24.30;48.40;;;;;;6098899;28;83157;-63
2024/03/04 02:42:59;;;;;;;17.65;11.35;;;24.30;48.30;;;;;;6099687;28;83191;-62
2024/03/04 02:45:59;;;;;;;20.77;12.30;;;24.30;48.20;;;;;;6099002;28;83551;-66
2024/03/04 02:49:00;;;;;;;19.33;11.73;;;24.40;48.20;;;;;;6100297;28;83999;-66
2024/03/04 02:52:00;;;;;;;19.67;12.07;;;24.40;48.20;;;;;;6099614;28;82945;-67
2024/03/04 02:55:01;;;;;;;17.35;11.27;;;24.40;48.20;;;;;;6102161;28;83727;-66
2024/03/04 02:58:02;;;;;;;16.02;11.50;;;24.40;48.20;;;;;;6098971;28;82950;-66
2024/03/04 03:01:02;;;;;;;16.65;11.20;;;24.30;48.10;;;;;;6099759;28;83404;-64
2024/03/04 03:04:03;;;;;;;18.27;11.48;;;24.30;48.10;;;;;;6100539;28;86232;-63
2024/03/04 03:07:04;;;;;;;16.17;11.95;;;24.30;48.70;;;;;;6099821;28;83695;-63
2024/03/04 03:10:05;;;;;;;17.88;12.05;;;24.30;48.00;;;;;;6080126;28;83168;-62
2024/03/04 03:13:07;;;;;;;14.25;10.93;;;24.30;48.00;;;;;;6105253;28;83586;-64
2024/03/04 03:16:07;;;;;;;17.00;11.57;;;24.30;47.90;;;;;;6103368;28;83052;-64
2024/03/04 03:19:08;;;;;;;15.27;10.68;;;24.30;47.80;;;;;;6104340;28;83973;-62
2024/03/04 03:22:08;;;;;;;15.45;11.23;;;24.30;47.90;;;;;;6085235;28;83303;-63
2024/03/04 03:25:10;;;;;;;21.23;11.65;;;24.40;48.00;;;;;;6085983;28;84158;-64
2024/03/04 03:28:11;;;;;;;15.18;10.40;;;24.40;47.90;;;;;;6088186;28;83016;-63
2024/03/04 03:31:11;;;;;;;14.43;10.75;;;24.40;47.90;;;;;;6092207;28;84392;-64
2024/03/04 03:34:12;;;;;;;16.10;10.63;;;24.40;48.00;;;;;;6089928;28;82947;-65
2024/03/04 03:37:13;;;;;;;15.00;11.02;;;24.40;48.00;;;;;;6096729;28;84820;-63
2024/03/04 03:40:13;;;;;;;18.48;11.60;;;24.40;48.00;;;;;;6093893;28;83934;-64
2024/03/04 03:43:14;;;;;;;15.30;10.60;;;24.40;48.00;;;;;;6090882;28;83356;-64
2024/03/04 03:46:14;;;;;;;18.17;10.52;;;24.40;48.00;;;;;;6088969;28;83538;-64
2024/03/04 03:49:16;;;;;;;15.50;10.82;;;24.40;48.00;;;;;;6088757;28;83365;-65
2024/03/04 03:52:16;;;;;;;16.70;10.25;;;24.40;47.90;;;;;;6087675;28;83522;-63
2024/03/04 03:55:17;;;;;;;16.27;10.57;;;24.40;47.80;;;;;;6091959;28;83292;-63
2024/03/04 03:58:17;;;;;;;16.85;10.23;;;24.30;47.80;;;;;;6097905;28;84612;-63
2024/03/04 04:01:18;;;;;;;15.60;10.52;;;24.30;47.90;;;;;;6092983;28;86309;-64
2024/03/04 04:04:19;;;;;;;17.77;11.48;;;24.30;47.90;;;;;;6103916;28;85323;-65
2024/03/04 04:07:19;;;;;;;14.73;10.60;;;24.30;47.80;;;;;;6101215;28;83004;-66
2024/03/04 04:10:20;;;;;;;14.82;10.15;;;24.30;47.70;;;;;;6089187;28;83568;-65
2024/03/04 04:13:21;;;;;;;13.20;10.05;;;24.30;47.70;;;;;;6093198;28;83109;-63
2024/03/04 04:16:21;;;;;;;15.65;11.18;;;24.30;48.00;;;;;;6094706;28;84847;-64
2024/03/04 04:19:22;;;;;;;12.68;9.70;;;24.30;48.00;;;;;;6092217;28;85078;-64
2024/03/04 04:22:23;;;;;;;18.38;9.40;;;24.30;47.70;;;;;;6091901;28;82864;-68
2024/03/04 04:25:24;;;;;;;15.20;10.55;;;24.30;47.90;;;;;;6092745;28;80886;-63
2024/03/04 04:28:25;;;;;;;14.55;9.50;;;24.30;47.60;;;;;;6093596;28;82851;-63
2024/03/04 04:31:25;;;;;;;15.65;10.07;;;24.30;47.50;;;;;;6097770;28;82915;-67
2024/03/04 04:34:26;;;;;;;14.88;10.02;;;24.30;47.70;;;;;;6084451;28;83693;-65
2024/03/04 04:37:26;;;;;;;13.50;9.20;;;24.30;47.60;;;;;;6092020;28;83235;-63
2024/03/04 04:40:27;;;;;;;13.68;9.52;;;24.30;47.70;;;;;;6093294;28;82692;-64
2024/03/04 04:43:28;;;;;;;12.05;9.95;;;24.30;47.00;;;;;;6105807;28;80105;-67
2024/03/04 04:46:28;;;;;;;15.00;10.35;;;24.30;46.90;;;;;;6096402;28;81893;-68
2024/03/04 04:49:29;;;;;;;13.48;9.40;;;24.40;46.90;;;;;;6091918;28;82888;-64
2024/03/04 04:52:30;;;;;;;13.63;9.23;;;24.40;46.60;;;;;;6095360;28;83500;-64
2024/03/04 04:55:30;;;;;;;16.88;10.93;;;24.40;46.80;;;;;;6105885;28;81163;-63
2024/03/04 04:58:31;;;;;;;14.70;9.95;;;24.50;46.60;;;;;;6092331;28;83304;-64
2024/03/04 05:01:32;;;;;;;15.10;9.70;;;24.50;46.60;;;;;;6097186;28;85837;-64
2024/03/04 05:04:33;;;;;;;16.80;11.27;;;24.50;46.60;;;;;;6102359;28;80603;-64
2024/03/04 05:07:34;;;;;;;17.58;10.93;;;24.50;46.50;;;;;;6096866;28;83315;-63
2024/03/04 05:10:39;;;;;;;15.48;11.15;;;24.50;46.50;;;;;;6096741;28;83002;-66
2024/03/04 05:13:39;;;;;;;16.13;11.30;;;24.60;47.30;;;;;;6097381;28;83625;-65
2024/03/04 05:16:40;;;;;;;16.58;10.95;;;24.60;46.70;;;;;;6091610;28;84232;-61
2024/03/04 05:19:40;;;;;;;17.77;11.38;;;24.60;47.10;;;;;;6080706;28;83271;-63
2024/03/04 05:22:41;;;;;;;18.70;10.95;;;24.60;47.00;;;;;;6095160;28;83632;-64
2024/03/04 05:25:41;;;;;;;14.13;9.73;;;24.70;47.00;;;;;;6091689;28;82834;-61
2024/03/04 05:28:42;;;;;;;15.43;10.88;;;24.70;47.30;;;;;;6094020;28;82959;-62
2024/03/04 05:31:42;;;;;;;16.45;10.70;;;24.70;47.40;;;;;;6091519;28;84348;-60
2024/03/04 05:34:43;;;;;;;16.08;10.65;;;24.60;47.30;;;;;;6085258;28;85450;-61
2024/03/04 05:37:44;;;;;;;22.63;11.88;;;24.60;47.50;;;;;;6086644;28;83591;-59
2024/03/04 05:40:46;;;;;;;15.90;10.63;;;24.60;47.60;;;;;;6084762;28;83036;-61
2024/03/04 05:43:46;;;;;;;16.35;10.73;;;24.70;48.00;;;;;;6085185;28;84535;-59
2024/03/04 05:46:47;;;;;;;20.13;11.20;;;24.60;48.20;;;;;;6090133;28;83424;-61
2024/03/04 05:49:48;;;;;;;15.57;10.48;;;24.70;48.60;;;;;;6094590;28;83314;-59
2024/03/04 05:52:48;;;;;;;14.98;10.30;;;24.60;48.80;;;;;;6088422;28;83593;-59
2024/03/04 05:55:49;;;;;;;16.15;10.38;;;24.70;49.20;;;;;;6094918;28;85641;-62
2024/03/04 05:58:50;;;;;;;17.55;10.93;;;24.60;48.80;;;;;;6088727;28;84757;-64
2024/03/04 06:01:50;;;;;;;18.35;10.57;;;24.60;49.10;;;;;;6089359;28;83058;-60
2024/03/04 06:04:51;;;;;;;16.60;10.02;;;24.60;48.60;;;;;;6099457;28;84124;-60
2024/03/04 06:07:56;;;;;;;14.88;10.40;;;24.60;49.00;;;;;;6086250;28;83397;-61
2024/03/04 06:10:57;;;;;;;;;;;24.60;49.00;;;;;;6084838;28;86166;-60
2024/03/04 06:13:57;;;;;;;17.60;11.43;;;24.60;49.00;;;;;;6092389;28;83190;-60
2024/03/04 06:16:58;;;;;;;32.92;11.25;;;24.60;48.60;;;;;;6076082;28;82814;-60
2024/03/04 06:19:58;;;;;;;17.30;11.18;;;24.60;48.20;;;;;;6076863;28;85030;-60
2024/03/04 06:22:59;;;;;;;19.90;11.82;;;24.60;48.10;;;;;;6075940;28;83651;-61
2024/03/04 06:25:59;;;;;;;17.42;12.52;;;24.50;47.90;;;;;;6101564;28;83866;-61
2024/03/04 06:29:00;;;;;;;16.58;12.35;;;24.50;47.80;;;;;;6099785;28;83455;-61
2024/03/04 06:32:01;;;;;;;19.35;12.80;;;24.50;47.70;;;;;;6089384;28;83397;-60
2024/03/04 06:35:01;;;;;;;19.52;12.27;;;24.40;47.80;;;;;;6084703;28;84569;-60
2024/03/04 06:38:02;;;;;;;21.10;12.68;;;24.40;47.60;;;;;;6089942;28;84015;-60
2024/03/04 06:41:02;;;;;;;17.42;12.35;;;24.40;47.50;;;;;;6089716;28;84845;-59
2024/03/04 06:44:03;;;;;;;17.05;11.90;;;24.40;47.40;;;;;;6094463;28;84654;-60
2024/03/04 06:47:03;;;;;;;17.92;12.70;;;24.40;47.60;;;;;;6093027;28;83862;-60
2024/03/04 06:50:04;;;;;;;15.52;12.25;;;24.40;47.70;;;;;;6093414;28;87488;-60
2024/03/04 06:53:04;;;;;;;20.77;12.80;;;24.40;47.70;;;;;;6089294;28;83605;-60
2024/03/04 06:56:05;;;;;;;16.77;12.63;;;24.30;47.90;;;;;;6097660;28;83105;-60
2024/03/04 06:59:06;;;;;;;17.75;12.20;;;24.30;48.00;;;;;;6096689;28;84676;-60
2024/03/04 07:02:06;;;;;;;22.23;13.32;;;24.30;48.00;;;;;;6082908;28;83408;-60
2024/03/04 07:05:07;;;;;;;20.33;13.35;;;24.40;48.00;;;;;;6094460;28;85377;-60
2024/03/04 07:08:07;;;;;;;18.77;13.43;;;24.30;47.70;;;;;;6096062;28;82851;-60
2024/03/04 07:11:08;;;;;;;21.73;13.98;;;24.30;48.30;;;;;;6091167;28;83528;-60
2024/03/04 07:14:08;;;;;;;18.90;13.00;;;24.30;47.50;;;;;;6097690;28;84158;-60
2024/03/04 07:17:09;;;;;;;17.98;12.80;;;24.30;47.40;;;;;;6097397;28;83072;-60
2024/03/04 07:20:10;;;;;;;21.95;14.38;;;24.30;47.30;;;;;;6082329;28;83477;-60
2024/03/04 07:23:11;;;;;;;22.25;14.23;;;24.30;47.20;;;;;;6077201;28;83456;-59
2024/03/04 07:26:12;;;;;;;19.60;12.38;;;24.30;47.00;;;;;;6097108;28;83497;-63
2024/03/04 07:29:13;;;;;;;15.88;12.43;;;24.30;47.20;;;;;;6096611;28;83513;-60
2024/03/04 07:32:13;;;;;;;18.63;13.30;;;24.30;47.10;;;;;;6090170;28;84564;-60
2024/03/04 07:35:14;;;;;;;18.70;12.70;;;24.30;47.30;;;;;;6094444;28;83436;-60
2024/03/04 07:38:14;;;;;;;16.60;12.05;;;24.30;47.40;;;;;;6090986;28;83761;-60
2024/03/04 07:41:15;;;;;;;15.63;11.68;;;24.30;47.60;;;;;;6097586;28;83101;-60
2024/03/04 07:44:17;;;;;;;18.27;12.25;;;24.30;47.90;;;;;;6097818;28;83026;-60
2024/03/04 07:47:18;;;;;;;16.20;11.90;;;24.40;48.00;;;;;;6097557;28;82919;-60
2024/03/04 07:50:18;;;;;;;15.48;11.07;;;24.30;48.00;;;;;;6098776;28;83347;-60
2024/03/04 07:53:19;;;;;;;15.77;11.75;;;24.30;47.90;;;;;;6098572;28;85134;-59
2024/03/04 07:56:19;;;;;;;16.60;11.80;;;24.30;47.90;;;;;;6097914;28;84826;-60
2024/03/04 07:59:20;;;;;;;17.48;11.20;;;24.40;48.50;;;;;;6100697;28;84345;-60
2024/03/04 08:02:21;;;;;;;15.73;11.60;;;24.30;47.80;;;;;;6093107;28;83670;-60
2024/03/04 08:05:21;;;;;;;15.57;11.50;;;24.30;47.80;;;;;;6100858;28;83135;-60
2024/03/04 08:08:22;;;;;;;17.20;12.27;;;24.40;47.70;;;;;;6093199;28;83738;-60
2024/03/04 08:11:22;;;;;;;16.75;11.85;;;24.30;47.60;;;;;;6090274;28;83325;-60
2024/03/04 08:14:23;;;;;;;17.20;11.73;;;24.30;47.60;;;;;;6080519;28;84720;-61
2024/03/04 08:17:26;;;;;;;16.75;12.35;;;24.40;47.60;;;;;;6078672;28;85876;-60
2024/03/04 08:20:26;;;;;;;18.52;12.00;;;24.40;47.50;;;;;;6081844;28;83446;-60
2024/03/04 08:23:27;;;;;;;16.63;12.40;;;24.30;47.40;;;;;;6091453;28;83219;-60
2024/03/04 08:26:27;;;;;;;19.83;13.98;;;24.30;47.60;;;;;;6086328;28;84248;-60
2024/03/04 08:29:28;;;;;;;27.00;17.83;;;24.30;47.70;;;;;;6083204;28;83599;-60
2024/03/04 08:32:29;;;;;;;32.83;19.85;;;24.20;47.40;;;;;;6086323;28;83406;-60
2024/03/04 08:35:29;;;;;;;29.77;19.55;;;24.20;47.60;;;;;;6085104;28;85470;-60
2024/03/04 08:38:30;;;;;;;37.67;23.30;;;24.10;46.60;;;;;;6082660;28;83204;-59
2024/03/04 08:41:30;;;;;;;35.97;23.38;;;24.10;46.20;;;;;;6082216;28;83363;-59
2024/03/04 08:44:31;;;;;;;38.92;25.10;;;24.10;46.80;;;;;;6093707;28;84122;-60
2024/03/04 08:47:32;;;;;;;39.33;26.98;;;24.10;46.30;;;;;;6083668;28;83098;-60
2024/03/04 08:50:32;;;;;;;37.35;23.83;;;24.20;46.30;;;;;;6091548;28;83181;-60
2024/03/04 08:53:33;;;;;;;38.17;23.75;;;24.30;47.10;;;;;;6082952;28;84133;-60
2024/03/04 08:56:33;;;;;;;38.92;24.25;;;24.20;46.20;;;;;;6083281;28;83256;-60
2024/03/04 08:59:34;;;;;;;40.47;24.52;;;24.30;45.90;;;;;;6082835;28;84243;-60
2024/03/04 09:02:34;;;;;;;36.38;24.60;;;24.30;46.00;;;;;;6082654;28;85432;-59
2024/03/04 09:05:36;;;;;;;39.63;23.85;;;24.30;45.70;;;;;;6100009;28;83228;-63
2024/03/04 09:08:36;;;;;;;36.85;23.33;;;24.30;45.70;;;;;;6101089;28;83231;-60
2024/03/04 09:11:37;;;;;;;33.90;21.92;;;24.30;45.50;;;;;;6100804;28;83170;-67
2024/03/04 09:14:37;;;;;;;37.55;23.35;;;24.40;45.00;;;;;;6101573;28;85125;-63
2024/03/04 09:17:38;;;;;;;36.03;22.50;;;24.50;44.60;;;;;;6092475;28;83338;-63
2024/03/04 09:20:38;;;;;;;32.72;20.63;;;24.60;44.70;;;;;;6077388;28;83383;-60
2024/03/04 09:23:42;;;;;;;30.88;19.10;;;24.60;44.50;;;;;;6083516;28;84084;-60
2024/03/04 09:26:42;;;;;;;27.60;18.00;;;24.70;44.90;;;;;;6090087;28;82891;-61
2024/03/04 09:29:44;;;;;;;26.65;16.88;;;24.80;45.20;;;;;;6091352;28;83447;-61
2024/03/04 09:32:44;;;;;;;22.70;16.25;;;24.80;45.30;;;;;;6089546;28;83151;-61
2024/03/04 09:35:46;;;;;;;21.98;14.35;;;24.90;45.60;;;;;;6086620;28;83755;-61
2024/03/04 09:38:46;;;;;;;20.75;13.45;;;24.90;45.40;;;;;;6087303;28;83272;-60
2024/03/04 09:41:47;;;;;;;20.25;13.65;;;24.90;45.80;;;;;;6086905;28;83708;-61
2024/03/04 09:44:47;;;;;;;19.30;13.25;;;25.00;45.70;;;;;;6089364;28;85379;-60
2024/03/04 09:47:48;;;;;;;20.00;12.85;;;25.00;45.80;;;;;;6092549;28;83363;-61
2024/03/04 09:50:48;;;;;;;20.10;10.77;;;25.00;45.80;;;;;;6093113;28;83318;-61
2024/03/04 09:53:50;;;;;;;15.48;11.13;;;24.90;46.00;;;;;;6086074;28;83165;-61
2024/03/04 09:56:51;;;;;;;18.52;10.23;;;24.90;46.10;;;;;;6085318;28;83471;-61
2024/03/04 09:59:51;;;;;;;13.23;10.27;;;24.90;46.20;;;;;;6090907;28;83389;-61
2024/03/04 10:02:52;;;;;;;14.63;10.10;;;24.90;46.30;;;;;;6096243;28;83742;-61
2024/03/04 10:05:52;;;;;;;16.38;10.68;;;24.90;46.30;;;;;;6100323;28;83269;-61
2024/03/04 10:08:53;;;;;;;14.82;9.95;;;25.00;46.40;;;;;;6077326;28;83417;-61
2024/03/04 10:11:53;;;;;;;11.88;9.15;;;25.00;46.50;;;;;;6101216;28;83045;-61
2024/03/04 10:14:54;;;;;;;13.43;9.95;;;25.10;46.50;;;;;;6103153;28;82849;-61
2024/03/04 10:17:55;;;;;;;13.20;8.85;;;25.10;46.50;;;;;;6104426;28;80263;-60
2024/03/04 10:20:57;;;;;;;12.57;8.60;;;25.30;46.30;;;;;;6091553;28;80743;-61
2024/03/04 10:23:58;;;;;;;11.93;8.95;;;25.30;46.30;;;;;;6094698;28;82451;-62
2024/03/04 10:26:58;;;;;;;12.90;9.27;;;25.30;46.30;;;;;;6081585;28;83213;-61
2024/03/04 10:29:59;;;;;;;11.40;7.55;;;25.40;46.40;;;;;;6098681;28;81280;-59
2024/03/04 10:32:59;;;;;;;11.85;9.10;;;25.40;46.30;;;;;;6090704;28;83237;-60
2024/03/04 10:36:00;;;;;;;13.07;8.07;;;25.50;46.30;;;;;;6096345;28;82433;-61
2024/03/04 10:39:00;;;;;;;10.15;7.45;;;25.50;46.30;;;;;;6093491;28;80752;-61
2024/03/04 10:42:03;;;;;;;9.35;7.10;;;25.60;46.30;;;;;;6095426;28;80359;-60
2024/03/04 10:45:06;;;;;;;8.18;6.53;;;25.70;46.30;;;;;;6101002;28;80225;-60
2024/03/04 10:48:07;;;;;;;9.27;7.43;;;25.70;46.20;;;;;;6085274;28;80559;-60
2024/03/04 10:51:08;;;;;;;9.15;6.72;;;25.80;46.20;;;;;;6101690;28;80177;-61
2024/03/04 10:54:08;;;;;;;9.38;6.82;;;25.80;46.10;;;;;;6099718;28;82670;-61
2024/03/04 10:57:09;;;;;;;11.85;7.38;;;25.90;46.20;;;;;;6095386;28;81237;-61
2024/03/04 11:00:30;;;;;;;8.70;6.43;;;25.80;46.30;;;;;;6103013;28;80395;-61
2024/03/04 11:03:30;;;;;;;12.65;6.93;;;25.70;46.40;;;;;;6091875;28;80867;-61
2024/03/04 11:06:30;;;;;;;9.27;7.15;;;25.70;46.60;;;;;;6089605;28;80355;-61
2024/03/04 11:09:31;;;;;;;8.10;7.15;;;25.60;46.70;;;;;;6088117;28;80746;-61
2024/03/04 11:12:31;;;;;;;7.97;6.90;;;25.50;46.90;;;;;;6092184;28;80371;-61
2024/03/04 11:15:32;;;;;;;11.40;7.80;;;25.40;46.80;;;;;;6092418;28;80557;-61
2024/03/04 11:18:33;;;;;;;9.82;7.82;;;25.30;47.10;;;;;;6092110;28;80473;-60
2024/03/04 11:21:33;;;;;;;11.63;8.40;;;25.20;47.40;;;;;;6078423;28;83089;-61
2024/03/04 11:24:34;;;;;;;13.60;7.90;;;25.20;47.70;;;;;;6091482;28;81644;-61
2024/03/04 11:27:35;;;;;;;13.30;7.70;;;25.20;47.80;;;;;;6079606;28;82166;-60
2024/03/04 11:30:37;;;;;;;9.35;7.35;;;25.20;47.70;;;;;;6090808;28;80791;-61
2024/03/04 11:33:37;;;;;;;9.07;7.05;;;25.10;47.70;;;;;;6086249;28;80327;-61
2024/03/04 11:36:41;;;;;;;10.00;7.22;;;25.10;47.80;;;;;;6083284;28;81510;-61
2024/03/04 11:39:41;;;;;;;14.32;8.30;;;25.10;48.00;;;;;;6087727;28;80206;-61
2024/03/04 11:42:44;;;;;;;11.82;7.70;;;25.10;48.00;;;;;;6091909;28;81230;-61
2024/03/04 11:45:45;;;;;;;11.07;7.60;;;25.00;48.10;;;;;;6096402;28;80576;-60
2024/03/04 11:48:48;;;;;;;9.55;6.85;;;25.00;48.10;;;;;;6084248;28;80566;-61
2024/03/04 11:51:50;;;;;;;11.07;7.38;;;25.00;48.10;;;;;;6087286;28;81753;-60
2024/03/04 11:54:51;;;;;;;11.13;7.82;;;25.00;48.20;;;;;;6106035;28;84012;-61
2024/03/04 11:57:51;;;;;;;12.30;8.02;;;25.00;48.30;;;;;;6086310;28;80642;-61
2024/03/04 12:00:52;;;;;;;10.02;7.20;;;24.90;48.30;;;;;;6084219;28;80960;-60
2024/03/04 12:03:53;;;;;;;12.88;8.45;;;24.90;48.50;;;;;;6092444;28;81073;-61
2024/03/04 12:06:54;;;;;;;13.63;7.68;;;24.90;48.50;;;;;;6098798;28;81164;-61
2024/03/04 12:09:54;;;;;;;9.00;7.50;;;24.90;48.50;;;;;;6101419;28;81210;-60
2024/03/04 12:12:55;;;;;;;9.60;6.97;;;24.80;48.50;;;;;;6105652;28;80486;-62
2024/03/04 12:15:57;;;;;;;11.07;7.75;;;24.80;48.60;;;;;;6105634;28;84576;-61
2024/03/04 12:18:57;;;;;;;12.23;8.13;;;24.80;48.60;;;;;;6093419;28;80746;-63
2024/03/04 12:21:58;;;;;;;11.55;8.02;;;24.70;49.20;;;;;;6101555;28;82744;-61
2024/03/04 12:24:58;;;;;;;11.52;8.40;;;24.70;48.60;;;;;;6088783;28;80648;-61
2024/03/04 12:27:59;;;;;;;12.48;8.25;;;24.70;48.50;;;;;;6105085;28;82370;-62
2024/03/04 12:30:59;;;;;;;9.73;7.65;;;24.70;48.60;;;;;;6093476;28;80237;-61
2024/03/04 12:34:00;;;;;;;14.10;7.85;;;24.70;48.50;;;;;;6086022;28;80722;-61
2024/03/04 12:37:01;;;;;;;9.95;8.38;;;24.70;48.60;;;;;;6086686;28;80925;-60
2024/03/04 12:40:01;;;;;;;11.65;8.50;;;24.70;48.60;;;;;;6104778;28;82199;-61
2024/03/04 12:43:05;;;;;;;9.63;7.40;;;24.70;48.60;;;;;;6097085;28;81118;-60
2024/03/04 12:46:05;;;;;;;15.13;8.73;;;24.60;48.60;;;;;;6098065;28;82171;-61
2024/03/04 12:49:06;;;;;;;10.98;7.63;;;24.60;48.60;;;;;;6091198;28;80326;-61
2024/03/04 12:52:06;;;;;;;13.05;8.43;;;24.70;48.60;;;;;;6095786;28;80566;-60
2024/03/04 12:55:09;;;;;;;11.80;8.45;;;24.70;48.60;;;;;;6098484;28;80421;-61
2024/03/04 12:58:09;;;;;;;10.13;8.45;;;24.70;48.60;;;;;;6091578;28;82460;-61
2024/03/04 13:01:10;;;;;;;15.25;8.65;;;24.70;48.60;;;;;;6094078;28;81364;-60
2024/03/04 13:04:10;;;;;;;11.38;8.05;;;24.70;48.60;;;;;;6103060;28;82036;-61
2024/03/04 13:07:11;;;;;;;8.95;7.53;;;24.70;48.70;;;;;;6105197;28;80803;-61
2024/03/04 13:10:11;;;;;;;9.50;7.65;;;24.70;48.60;;;;;;6102860;28;82072;-61
2024/03/04 13:13:12;;;;;;;14.13;8.43;;;24.70;48.70;;;;;;6105607;28;81506;-60
2024/03/04 13:16:12;;;;;;;16.52;7.80;;;24.60;48.70;;;;;;6104174;28;80657;-61
2024/03/04 13:19:13;;;;;;;11.93;7.70;;;24.60;48.90;;;;;;6104223;28;81167;-61
2024/03/04 13:22:14;;;;;;;11.20;7.80;;;24.60;48.80;;;;;;6102152;28;83008;-60
2024/03/04 13:25:16;;;;;;;9.85;7.63;;;24.60;48.90;;;;;;6102779;28;80618;-60
2024/03/04 13:28:16;;;;;;;12.52;8.32;;;24.60;48.90;;;;;;6098238;28;81308;-60
2024/03/04 13:31:17;;;;;;;13.38;8.77;;;24.60;48.90;;;;;;6100365;28;81381;-61
2024/03/04 13:34:17;;;;;;;13.15;8.10;;;24.60;49.00;;;;;;6101620;28;81350;-61
2024/03/04 13:37:18;;;;;;;12.13;8.45;;;24.60;49.00;;;;;;6100662;28;80714;-61
2024/03/04 13:40:19;;;;;;;11.45;8.15;;;24.50;49.00;;;;;;6092306;28;81312;-60
2024/03/04 13:43:19;;;;;;;11.25;7.97;;;24.50;49.00;;;;;;6085477;28;81019;-61
2024/03/04 13:46:21;;;;;;;12.15;7.78;;;24.50;49.00;;;;;;6084032;28;80721;-61
2024/03/04 13:49:22;;;;;;;9.85;7.10;;;24.50;49.10;;;;;;6084810;28;80376;-61
2024/03/04 13:52:22;;;;;;;13.55;8.20;;;24.50;49.10;;;;;;6095761;28;80497;-62
2024/03/04 13:55:23;;;;;;;10.50;7.68;;;24.50;49.10;;;;;;6099336;28;80834;-61
2024/03/04 13:58:23;;;;;;;12.15;8.35;;;24.50;49.20;;;;;;6094827;28;80321;-61
2024/03/04 14:01:26;;;;;;;10.02;8.18;;;24.50;49.20;;;;;;6100866;28;80500;-61
2024/03/04 14:04:26;;;;;;;11.35;7.82;;;24.40;49.30;;;;;;6103263;28;83085;-61
2024/03/04 14:07:27;;;;;;;13.18;8.55;;;24.40;49.30;;;;;;6093486;28;80124;-61
2024/03/04 14:10:29;;;;;;;10.63;8.05;;;24.40;49.30;;;;;;6101652;28;81379;-61
2024/03/04 14:13:30;;;;;;;12.52;8.55;;;24.40;49.30;;;;;;6103486;28;81831;-61
2024/03/04 14:16:31;;;;;;;12.73;8.30;;;24.40;49.30;;;;;;6102025;28;80509;-61
2024/03/04 14:19:32;;;;;;;10.60;8.15;;;24.40;49.30;;;;;;6094664;28;84090;-61
2024/03/04 14:22:33;;;;;;;11.68;8.38;;;24.50;49.30;;;;;;6093420;28;80001;-62
2024/03/04 14:25:33;;;;;;;10.85;7.65;;;24.50;49.30;;;;;;6097874;28;80530;-63
2024/03/04 14:28:34;;;;;;;11.52;8.77;;;24.40;49.30;;;;;;6102359;28;81370;-62
2024/03/04 14:31:34;;;;;;;11.02;6.90;;;24.40;49.30;;;;;;6099285;28;82485;-63
2024/03/04 14:34:36;;;;;;;11.95;8.60;;;24.40;49.30;;;;;;6101693;28;80615;-62
2024/03/04 14:37:36;;;;;;;10.68;7.78;;;24.40;49.30;;;;;;6099161;28;82372;-62
2024/03/04 14:40:37;;;;;;;13.05;8.55;;;24.50;50.00;;;;;;6082209;28;81051;-62
2024/03/04 14:43:38;;;;;;;12.82;8.60;;;24.40;49.30;;;;;;6100871;28;80578;-61
2024/03/04 14:46:38;;;;;;;13.13;8.75;;;24.50;49.30;;;;;;6099886;28;81317;-62
2024/03/04 14:49:41;;;;;;;13.10;8.40;;;24.40;49.30;;;;;;6085470;28;82687;-62
2024/03/04 14:52:42;;;;;;;14.27;7.85;;;24.40;49.30;;;;;;6100355;28;81650;-60
2024/03/04 14:55:42;;;;;;;18.05;8.02;;;24.40;49.40;;;;;;6100015;28;81504;-62
2024/03/04 14:58:43;;;;;;;12.63;8.98;;;24.40;49.50;;;;;;6092720;28;80783;-61
2024/03/04 15:01:43;;;;;;;17.92;8.90;;;24.40;49.50;;;;;;6103260;28;81565;-61
2024/03/04 15:04:44;;;;;;;17.17;9.05;;;24.40;49.80;;;;;;6101620;28;81383;-60
2024/03/04 15:07:44;;;;;;;12.65;7.97;;;24.40;49.90;;;;;;6093602;28;81785;-62
2024/03/04 15:10:45;;;;;;;13.25;8.43;;;24.50;50.20;;;;;;6101109;28;80693;-61
2024/03/04 15:13:46;;;;;;;11.60;8.55;;;24.50;50.50;;;;;;6106667;28;80279;-60
2024/03/04 15:16:47;;;;;;;15.93;8.40;;;24.50;50.40;;;;;;6090481;28;83548;-61
2024/03/04 15:19:47;;;;;;;21.77;8.07;;;24.50;50.50;;;;;;6087853;28;80482;-61
2024/03/04 15:22:48;;;;;;;20.67;8.35;;;24.60;50.70;;;;;;6096162;28;80996;-57